Time;durP1;ratioP1;P1;durP2;ratioP2;P2;SDS_P1;SDS_P2;PMS_P1;PMS_P2;Temp;Humidity;BMP_temperature;BMP_pressure;BME280_temperature;BME280_humidity;BME280_pressure;Samples;Min_cycle;Max_cycle;Signal;HPM_P1;HPM_P2
2021/04/01 00:00:16;;;;;;;25.85;13.85;;;;;;;10.95;73.77;101609.13;6298309;28;20044;-76
2021/04/01 00:03:17;;;;;;;32.97;14.13;;;;;;;11.04;73.43;101600.84;6298203;28;20505;-76
2021/04/01 00:06:18;;;;;;;23.40;13.05;;;;;;;11.02;74.12;101601.81;6298222;28;20052;-76
2021/04/01 00:09:19;;;;;;;38.40;14.60;;;;;;;10.96;75.08;101596.81;6298083;28;20476;-76
2021/04/01 00:12:21;;;;;;;25.40;13.55;;;;;;;10.90;74.90;101593.53;6297922;28;20542;-76
2021/04/01 00:15:22;;;;;;;23.80;13.15;;;;;;;10.89;75.02;101593.56;6297904;28;20044;-76
2021/04/01 00:18:23;;;;;;;22.83;13.80;;;;;;;10.83;76.77;101592.06;6298019;28;20051;-76
2021/04/01 00:21:24;;;;;;;27.23;14.32;;;;;;;10.82;77.61;101585.09;6297568;28;20450;-76
2021/04/01 00:24:25;;;;;;;26.80;14.98;;;;;;;10.88;77.39;101589.22;6297829;28;20056;-76
2021/04/01 00:27:27;;;;;;;29.73;16.08;;;;;;;10.82;76.68;101586.88;6297795;28;20070;-76
2021/04/01 00:30:28;;;;;;;33.80;18.70;;;;;;;10.80;77.50;101584.28;6297434;28;20051;-76
2021/04/01 00:33:29;;;;;;;42.65;20.52;;;;;;;10.74;76.97;101586.31;6297477;28;20048;-76
2021/04/01 00:36:30;;;;;;;32.47;19.23;;;;;;;10.73;75.60;101593.34;6297291;28;20045;-76
2021/04/01 00:39:31;;;;;;;31.75;19.02;;;;;;;10.71;77.11;101586.44;6297296;28;20093;-76
2021/04/01 00:42:33;;;;;;;33.28;19.13;;;;;;;10.70;77.31;101589.97;6296977;28;20106;-76
2021/04/01 00:45:34;;;;;;;32.10;17.88;;;;;;;10.74;76.80;101581.91;6297291;28;20044;-76
2021/04/01 00:48:35;;;;;;;34.08;19.48;;;;;;;10.64;77.75;101581.44;6297036;28;20044;-76
2021/04/01 00:51:36;;;;;;;31.23;19.27;;;;;;;10.61;78.90;101578.91;6296831;28;20049;-76
2021/04/01 00:54:37;;;;;;;30.58;18.40;;;;;;;10.61;77.63;101571.03;6297090;28;20045;-77
2021/04/01 00:57:43;;;;;;;35.47;17.83;;;;;;;10.60;78.12;101579.00;6297105;28;20101;-76
2021/04/01 01:00:44;;;;;;;29.65;18.42;;;;;;;10.55;79.94;101580.94;6296639;28;20835;-76
2021/04/01 01:03:45;;;;;;;35.30;16.55;;;;;;;10.54;79.17;101574.00;6296784;28;20131;-76
2021/04/01 01:06:46;;;;;;;30.60;16.02;;;;;;;10.59;78.63;101572.88;6296728;28;20048;-76
2021/04/01 01:09:47;;;;;;;29.77;14.98;;;;;;;10.60;77.18;101577.22;6296512;28;20098;-76
2021/04/01 01:12:50;;;;;;;29.25;16.05;;;;;;;10.55;77.64;101571.28;6296540;28;20048;-76
2021/04/01 01:15:51;;;;;;;27.20;13.73;;;;;;;10.62;78.31;101561.38;6296577;28;20048;-76
2021/04/01 01:18:52;;;;;;;30.90;16.45;;;;;;;10.62;77.87;101569.25;6296756;28;20071;-75
2021/04/01 01:21:53;;;;;;;33.03;15.80;;;;;;;10.55;79.01;101567.81;6296207;28;20114;-76
2021/04/01 01:24:55;;;;;;;31.30;17.27;;;;;;;10.54;79.87;101566.97;6296615;28;20508;-76
2021/04/01 01:27:56;;;;;;;29.85;16.27;;;;;;;10.57;79.38;101556.28;6296248;28;20397;-76
2021/04/01 01:30:57;;;;;;;29.52;15.52;;;;;;;10.60;78.62;101561.44;6296311;28;20057;-76
2021/04/01 01:33:58;;;;;;;33.13;15.38;;;;;;;10.64;78.81;101556.91;6296436;28;20135;-76
2021/04/01 01:36:59;;;;;;;24.15;14.20;;;;;;;10.64;78.58;101563.03;6296157;28;20444;-77
2021/04/01 01:40:01;;;;;;;28.35;14.88;;;;;;;10.60;79.52;101555.34;6296317;28;20560;-76
2021/04/01 01:43:04;;;;;;;29.63;13.65;;;;;;;10.59;80.24;101554.47;6296120;28;20048;-76
2021/04/01 01:46:05;;;;;;;25.67;15.05;;;;;;;10.62;81.02;101550.84;6296353;28;20053;-76
2021/04/01 01:49:06;;;;;;;26.55;14.68;;;;;;;10.60;80.21;101547.44;6296155;28;20056;-76
2021/04/01 01:52:07;;;;;;;30.05;16.17;;;;;;;10.59;81.55;101546.59;6295911;28;20056;-76
2021/04/01 01:55:11;;;;;;;31.15;15.82;;;;;;;10.60;81.73;101552.72;6296091;28;20048;-76
2021/04/01 01:58:12;;;;;;;26.27;13.95;;;;;;;10.63;80.67;101550.81;6295657;28;20045;-76
2021/04/01 02:01:13;;;;;;;30.02;15.57;;;;;;;10.71;79.42;101555.75;6295910;28;20101;-76
2021/04/01 02:04:14;;;;;;;34.92;15.68;;;;;;;10.78;78.53;101556.34;6296126;28;20048;-76
2021/04/01 02:07:15;;;;;;;30.20;15.52;;;;;;;10.78;79.56;101556.34;6296009;28;20045;-76
2021/04/01 02:10:20;;;;;;;27.83;14.40;;;;;;;10.76;78.90;101559.03;6295818;28;20064;-76
2021/04/01 02:13:23;;;;;;;27.83;15.88;;;;;;;10.75;80.33;101561.72;6295746;28;20398;-76
2021/04/01 02:16:24;;;;;;;28.88;14.55;;;;;;;10.75;78.92;101556.47;6296749;28;20052;-76
2021/04/01 02:19:25;;;;;;;27.33;14.63;;;;;;;10.71;79.93;101554.88;6300879;28;20102;-76
2021/04/01 02:22:26;;;;;;;29.02;14.55;;;;;;;10.72;79.99;101556.59;6300232;28;20058;-76
2021/04/01 02:25:28;;;;;;;27.52;14.80;;;;;;;10.69;80.02;101556.75;6300701;28;20101;-76
2021/04/01 02:28:31;;;;;;;27.08;14.68;;;;;;;10.67;79.29;101551.53;6300506;28;20067;-77
2021/04/01 02:31:32;;;;;;;27.50;14.90;;;;;;;10.63;79.31;101558.69;6300284;28;20052;-76
2021/04/01 02:34:33;;;;;;;27.70;15.48;;;;;;;10.59;79.79;101557.09;6300365;28;20414;-76
2021/04/01 02:37:33;;;;;;;30.70;16.67;;;;;;;10.61;81.20;101555.25;6300366;28;20052;-76
2021/04/01 02:40:37;;;;;;;30.17;15.60;;;;;;;10.55;82.38;101554.66;6300242;28;20500;-76
2021/04/01 02:43:38;;;;;;;26.52;14.20;;;;;;;10.49;81.75;101552.25;6300173;28;20052;-76
2021/04/01 02:46:39;;;;;;;27.42;14.95;;;;;;;10.49;82.26;101545.25;6299384;28;20087;-76
2021/04/01 02:49:40;;;;;;;26.58;15.05;;;;;;;10.45;81.37;101550.72;6299928;28;20055;-77
2021/04/01 02:52:41;;;;;;;31.77;14.43;;;;;;;10.45;80.88;101548.06;6299650;28;20044;-76
2021/04/01 02:55:43;;;;;;;27.25;15.23;;;;;;;10.44;81.33;101552.44;6299864;28;20486;-76
2021/04/01 02:58:44;;;;;;;25.65;14.00;;;;;;;10.41;81.98;101544.72;6299926;28;20072;-76
2021/04/01 03:01:45;;;;;;;26.98;14.02;;;;;;;10.39;82.65;101543.91;6299471;28;20525;-76
2021/04/01 03:04:47;;;;;;;24.38;14.23;;;;;;;10.35;82.77;101539.69;6281936;28;20056;-76
2021/04/01 03:07:48;;;;;;;25.40;14.73;;;;;;;10.36;82.65;101536.16;6274668;28;20070;-76
2021/04/01 03:10:50;;;;;;;25.45;13.70;;;;;;;10.37;82.38;101537.88;6274660;28;20059;-77
2021/04/01 03:13:51;;;;;;;28.20;13.35;;;;;;;10.34;82.32;101541.44;6274616;28;20091;-76
2021/04/01 03:16:52;;;;;;;27.73;14.90;;;;;;;10.33;80.91;101547.63;6274739;28;20053;-76
2021/04/01 03:19:53;;;;;;;27.25;13.80;;;;;;;10.44;79.38;101539.31;6274557;28;20045;-76
2021/04/01 03:22:54;;;;;;;31.77;14.43;;;;;;;10.41;81.16;101539.44;6274058;28;20559;-76
2021/04/01 03:25:56;;;;;;;42.05;15.57;;;;;;;10.42;80.57;101535.91;6274308;28;20049;-76
2021/04/01 03:28:57;;;;;;;25.67;14.13;;;;;;;10.33;79.64;101542.38;6274079;28;20527;-76
2021/04/01 03:31:58;;;;;;;27.05;14.43;;;;;;;10.21;80.50;101539.34;6274168;28;20049;-76
2021/04/01 03:34:59;;;;;;;24.30;13.98;;;;;;;10.21;82.69;101528.81;6274113;28;20053;-76
2021/04/01 03:38:02;;;;;;;29.50;13.65;;;;;;;10.27;81.78;101526.00;6274014;28;20417;-76
2021/04/01 03:41:04;;;;;;;25.95;14.20;;;;;;;10.29;82.33;101532.06;6278589;28;20086;-76
2021/04/01 03:44:06;;;;;;;26.48;14.43;;;;;;;10.31;81.61;101533.72;6286335;28;20072;-76
2021/04/01 03:47:07;;;;;;;23.92;13.88;;;;;;;10.27;80.58;101545.25;6285616;28;20052;-76
2021/04/01 03:50:10;;;;;;;27.10;14.93;;;;;;;10.22;83.24;101544.56;6283141;28;20405;-76
2021/04/01 03:53:12;;;;;;;25.15;14.32;;;;;;;10.23;82.62;101532.28;6284703;28;20563;-76
2021/04/01 03:56:13;;;;;;;25.35;14.70;;;;;;;10.23;82.66;101537.53;6283651;28;20044;-76
2021/04/01 03:59:15;;;;;;;28.17;13.55;;;;;;;10.24;81.80;101531.34;6285559;28;20056;-76
2021/04/01 04:02:36;;;;;;;28.48;15.02;;;;;;;10.24;82.32;101526.97;6273253;28;20437;-76
2021/04/01 04:05:45;;;;;;;23.63;12.77;;;;;;;10.26;81.60;101524.28;6273596;28;20506;-76
2021/04/01 04:09:12;;;;;;;25.95;14.38;;;;;;;10.18;81.77;101532.44;6273311;28;20405;-76
2021/04/01 04:12:23;;;;;;;25.48;15.20;;;;;;;10.19;82.89;101534.16;6273118;28;20045;-76
2021/04/01 04:15:24;;;;;;;25.20;13.65;;;;;;;10.26;81.76;101534.78;6273553;28;20045;-76
2021/04/01 04:18:25;;;;;;;30.63;14.93;;;;;;;10.18;82.39;101535.06;6273220;28;20517;-76
2021/04/01 04:21:27;;;;;;;32.97;15.95;;;;;;;10.25;83.78;101535.72;6272642;28;20045;-76
2021/04/01 04:24:30;;;;;;;32.88;15.82;;;;;;;10.23;82.22;101537.53;6273669;28;20044;-81
2021/04/01 04:30:48;;;;;;;31.45;16.05;;;;;;;10.26;82.81;101516.41;6260029;28;20045;-81
2021/04/01 04:33:49;;;;;;;27.35;14.77;;;;;;;10.29;82.11;101508.41;6272992;28;20045;-81
2021/04/01 04:36:50;;;;;;;29.48;15.00;;;;;;;10.28;79.93;101501.44;6286159;28;20056;-79
2021/04/01 04:39:51;;;;;;;28.42;15.80;;;;;;;10.30;78.53;101494.34;6297599;28;20417;-80
2021/04/01 04:42:53;;;;;;;41.80;17.63;;;;;;;10.35;77.90;101513.41;6297453;28;20053;-81
2021/04/01 04:45:54;;;;;;;38.17;18.25;;;;;;;10.43;77.46;101515.72;6297816;28;20053;-80
2021/04/01 04:48:55;;;;;;;34.20;17.92;;;;;;;10.57;76.53;101532.66;6297644;28;20358;-80
2021/04/01 04:51:56;;;;;;;43.15;19.85;;;;;;;10.40;75.53;101538.59;6297450;28;20071;-80
2021/04/01 04:54:57;;;;;;;35.75;18.58;;;;;;;10.39;75.35;101541.28;6297416;28;20420;-80
2021/04/01 04:58:06;;;;;;;36.58;19.98;;;;;;;10.28;75.99;101546.09;6297734;28;20045;-80
2021/04/01 05:01:12;;;;;;;38.17;20.40;;;;;;;10.30;75.57;101539.84;6297535;28;20122;-81
2021/04/01 05:07:34;;;;;;;39.53;20.83;;;;;;;10.38;75.26;101553.56;6297304;28;20450;-81
2021/04/01 05:10:34;;;;;;;39.72;20.52;;;;;;;10.40;76.06;101556.09;6297486;28;20054;-81
2021/04/01 05:13:36;;;;;;;46.13;22.00;;;;;;;10.29;75.88;101553.06;6297389;28;20056;-81
2021/04/01 05:16:37;;;;;;;37.80;19.50;;;;;;;10.33;77.54;101541.53;6296991;28;20045;-81
2021/04/01 05:19:40;;;;;;;37.85;19.33;;;;;;;10.35;77.55;101545.78;6297309;28;20048;-81
2021/04/01 05:22:45;;;;;;;41.67;20.65;;;;;;;10.36;76.24;101565.06;6296846;28;20055;-81
2021/04/01 05:25:46;;;;;;;43.65;22.30;;;;;;;10.34;77.31;101557.22;6297274;28;20052;-81
2021/04/01 05:28:51;;;;;;;40.17;21.10;;;;;;;10.41;76.84;101557.84;6297168;28;20045;-81
2021/04/01 05:31:52;;;;;;;45.22;21.55;;;;;;;10.38;77.80;101544.81;6296736;28;20493;-81
2021/04/01 05:34:54;;;;;;;48.10;21.85;;;;;;;10.50;77.35;101530.34;6297300;28;20481;-80
2021/04/01 05:37:54;;;;;;;46.75;22.75;;;;;;;10.44;77.75;101533.19;6297026;28;20058;-79
2021/04/01 05:40:55;;;;;;;42.53;21.60;;;;;;;10.45;79.42;101545.44;6296888;28;20056;-80
2021/04/01 05:44:04;;;;;;;43.83;21.35;;;;;;;10.50;77.47;101559.25;6296550;28;20421;-80
2021/04/01 05:47:13;;;;;;;44.30;23.50;;;;;;;10.46;78.36;101563.78;6296900;28;20090;-80
2021/04/01 05:50:24;;;;;;;;;;;;;;;10.54;79.47;101571.34;6297336;28;20052;-80
2021/04/01 06:03:55;;;;;;;45.17;23.77;;;;;;;10.73;77.16;101545.19;6301428;28;20508;-80
2021/04/01 06:07:01;;;;;;;42.15;22.92;;;;;;;10.78;76.63;101540.59;6301341;28;20110;-81
2021/04/01 06:10:03;;;;;;;49.03;24.15;;;;;;;10.76;77.74;101538.00;6301681;28;20054;-81
2021/04/01 06:13:08;;;;;;;48.10;24.50;;;;;;;10.77;77.98;101539.72;6301398;28;20114;-80
2021/04/01 06:16:12;;;;;;;45.72;23.63;;;;;;;10.80;77.42;101559.75;6301652;28;20052;-81
2021/04/01 06:19:16;;;;;;;50.95;25.52;;;;;;;10.79;75.94;101579.09;6301450;28;20048;-80
2021/04/01 06:22:21;;;;;;;53.13;25.45;;;;;;;10.90;75.32;101592.66;6300827;28;20049;-80
2021/04/01 06:25:22;;;;;;;45.90;24.95;;;;;;;10.82;74.50;101592.97;6301157;28;20074;-80
2021/04/01 06:28:38;;;;;;;61.45;28.15;;;;;;;10.90;74.45;101611.06;6300851;28;20040;-81
2021/04/01 06:31:42;;;;;;;56.15;24.33;;;;;;;11.04;74.67;101613.16;6300739;28;20052;-80
2021/04/01 06:34:44;;;;;;;54.10;25.10;;;;;;;11.24;73.68;101625.47;6300715;28;20058;-81
2021/04/01 06:38:02;;;;;;;45.25;24.00;;;;;;;11.16;75.35;101612.63;6300796;28;20141;-80
2021/04/01 06:41:05;;;;;;;56.33;24.33;;;;;;;10.99;76.40;101622.97;6300573;28;20417;-81
2021/04/01 06:44:27;;;;;;;47.47;25.27;;;;;;;10.99;76.52;101620.34;6300787;28;20060;-80
2021/04/01 06:47:33;;;;;;;53.42;26.63;;;;;;;11.14;75.95;101622.38;6300781;28;20045;-81
2021/04/01 06:50:35;;;;;;;54.10;26.02;;;;;;;11.16;75.87;101631.88;6300836;28;20048;-80
2021/04/01 06:53:40;;;;;;;57.97;27.65;;;;;;;11.22;74.80;101627.28;6300582;28;20190;-81
2021/04/01 06:56:48;;;;;;;54.28;27.95;;;;;;;11.26;75.54;101628.88;6300706;28;20048;-81
2021/04/01 07:00:00;;;;;;;61.80;28.23;;;;;;;11.47;74.99;101630.59;6300551;28;20086;-81
2021/04/01 07:03:06;;;;;;;55.35;27.80;;;;;;;11.43;74.72;101629.00;6299705;28;20082;-80
2021/04/01 07:06:10;;;;;;;67.05;29.25;;;;;;;11.68;74.00;101636.72;6300500;28;20060;-80
2021/04/01 07:09:28;;;;;;;65.00;29.15;;;;;;;11.53;73.60;101640.84;6299929;28;20048;-81
2021/04/01 07:12:34;;;;;;;71.10;31.27;;;;;;;11.63;72.45;101633.44;6299981;28;20524;-80
2021/04/01 07:15:41;;;;;;;69.93;32.20;;;;;;;11.69;71.51;101635.78;6299856;28;20048;-81
2021/04/01 07:19:21;;;;;;;67.57;31.50;;;;;;;11.97;69.87;101645.13;6299649;28;20044;-80
2021/04/01 07:36:03;;;;;;;93.47;40.28;;;;;;;12.38;60.38;101644.09;6254643;28;20040;-80
2021/04/01 07:49:23;;;;;;;98.43;42.45;;;;;;;12.70;57.34;101639.09;6373618;27;705768;-82
2021/04/01 07:52:26;;;;;;;100.88;45.55;;;;;;;12.85;56.09;101626.94;6369035;28;20054;-82
2021/04/01 07:55:32;;;;;;;103.90;45.63;;;;;;;12.73;55.73;101628.41;6369107;28;20047;-82
2021/04/01 07:58:57;;;;;;;105.05;45.08;;;;;;;12.60;55.23;101627.28;6369545;28;20131;-82
2021/04/01 08:02:07;;;;;;;110.75;46.50;;;;;;;12.60;56.24;101636.03;6368637;28;20198;-81
2021/04/01 08:05:13;;;;;;;108.40;46.80;;;;;;;12.65;55.84;101631.41;6368969;28;20047;-81
2021/04/01 08:08:20;;;;;;;103.03;46.30;;;;;;;12.81;55.88;101620.97;6368721;28;20044;-81
2021/04/01 08:11:27;;;;;;;113.20;46.10;;;;;;;12.88;55.40;101629.44;6368606;28;20047;-82
2021/04/01 08:14:32;;;;;;;106.60;46.25;;;;;;;12.96;56.51;101635.19;6369015;28;20088;-81
2021/04/01 08:17:49;;;;;;;116.55;47.25;;;;;;;13.04;56.05;101650.66;6368686;28;20090;-80
2021/04/01 08:20:56;;;;;;;116.03;48.35;;;;;;;12.87;55.73;101644.41;6368207;28;20055;-82
2021/04/01 08:24:01;;;;;;;110.88;47.88;;;;;;;12.78;56.27;101636.94;6369217;28;20063;-83
2021/04/01 08:27:19;;;;;;;114.70;46.95;;;;;;;12.89;56.62;101634.63;6370507;28;20131;-85
2021/04/01 08:33:54;;;;;;;117.15;49.33;;;;;;;12.74;57.42;101638.03;6369360;28;20055;-86
2021/04/01 08:36:59;;;;;;;123.65;50.65;;;;;;;12.85;56.70;101637.50;6370127;28;20047;-83
2021/04/01 08:40:01;;;;;;;122.07;51.70;;;;;;;12.86;57.42;101629.53;6370435;28;20047;-85
2021/04/01 08:43:38;;;;;;;120.15;50.95;;;;;;;12.79;57.88;101643.94;6369874;28;20048;-87
2021/04/01 08:46:50;;;;;;;127.75;52.35;;;;;;;12.84;57.82;101636.63;6369862;28;20039;-86
2021/04/01 08:50:00;;;;;;;118.70;51.47;;;;;;;12.75;59.35;101639.72;6369857;28;20083;-86
2021/04/01 08:53:16;;;;;;;;;;;;;;;12.97;58.70;101644.81;6369009;28;20531;-82
2021/04/01 08:56:29;;;;;;;126.47;52.33;;;;;;;12.99;59.05;101640.34;6367744;28;19923;-81
2021/04/01 08:59:39;;;;;;;133.93;53.80;;;;;;;13.23;59.12;101653.28;6357282;28;20389;-81
2021/04/01 09:02:46;;;;;;;139.82;55.58;;;;;;;13.28;58.19;101652.09;6350442;28;20046;-82
2021/04/01 09:05:54;;;;;;;134.48;57.13;;;;;;;13.37;57.02;101658.72;6350448;28;20572;-80
2021/04/01 09:09:02;;;;;;;129.43;54.72;;;;;;;13.27;56.90;101666.25;6349977;28;20611;-81
2021/04/01 09:12:17;;;;;;;135.65;57.10;;;;;;;13.22;58.47;101660.34;6350728;28;20046;-81
2021/04/01 09:15:28;;;;;;;138.18;59.92;;;;;;;13.20;59.63;101673.56;6350755;28;20047;-81
2021/04/01 09:18:31;;;;;;;129.70;57.00;;;;;;;13.07;59.77;101682.16;6350479;28;20074;-81
2021/04/01 09:21:33;;;;;;;135.43;58.70;;;;;;;12.98;61.27;101682.59;6350443;28;20047;-81
2021/04/01 09:24:35;;;;;;;122.50;55.80;;;;;;;13.02;61.24;101697.38;6350494;28;20507;-81
2021/04/01 09:27:44;;;;;;;130.57;54.42;;;;;;;12.89;62.60;101702.38;6350068;28;20047;-81
2021/04/01 09:30:56;;;;;;;113.95;50.10;;;;;;;12.69;64.68;101706.81;6350173;28;20051;-84
2021/04/01 09:34:00;;;;;;;107.72;49.90;;;;;;;12.62;66.05;101722.97;6351145;28;20054;-84
2021/04/01 09:37:10;;;;;;;106.15;49.17;;;;;;;12.57;67.87;101703.88;6350917;28;20043;-83
2021/04/01 09:40:13;;;;;;;95.40;45.97;;;;;;;12.91;67.47;101708.44;6350130;28;20134;-82
2021/04/01 09:43:16;;;;;;;101.80;43.30;;;;;;;12.84;68.32;101715.78;6339667;28;20047;-73
2021/04/01 09:46:21;;;;;;;94.45;42.58;;;;;;;12.88;69.76;101712.06;6340765;28;20126;-81
2021/04/01 09:49:27;;;;;;;90.18;39.78;;;;;;;12.95;71.27;101712.66;6349616;28;20044;-79
2021/04/01 09:52:30;;;;;;;82.93;35.38;;;;;;;13.11;70.18;101712.75;6345974;28;20043;-85
2021/04/01 09:55:40;;;;;;;64.45;31.17;;;;;;;13.20;69.38;101717.59;6349481;28;20488;-81
2021/04/01 09:58:44;;;;;;;65.35;29.70;;;;;;;13.28;70.83;101725.19;6349526;28;20082;-82
2021/04/01 10:01:45;;;;;;;61.97;25.65;;;;;;;13.26;70.71;101730.50;6348784;28;20420;-80
2021/04/01 10:04:52;;;;;;;45.92;21.73;;;;;;;13.21;71.54;101737.78;6350066;28;20126;-82
2021/04/01 10:07:56;;;;;;;35.13;15.80;;;;;;;13.28;70.49;101738.38;6329481;28;20040;-75
2021/04/01 10:11:01;;;;;;;31.60;11.60;;;;;;;13.07;70.04;101743.72;6348480;28;20492;-84
2021/04/01 10:14:06;;;;;;;24.38;8.07;;;;;;;13.14;69.02;101760.97;6349924;28;20055;-83
2021/04/01 10:17:09;;;;;;;22.98;7.25;;;;;;;12.89;69.76;101766.53;6349956;28;20066;-84
2021/04/01 10:20:10;;;;;;;17.80;5.30;;;;;;;12.99;68.86;101766.09;6350319;28;20079;-84
2021/04/01 10:23:11;;;;;;;20.75;4.70;;;;;;;12.66;68.88;101764.13;6349169;28;20500;-82
2021/04/01 10:26:15;;;;;;;21.08;4.97;;;;;;;12.53;68.91;101763.81;6349227;28;20044;-80
2021/04/01 10:29:21;;;;;;;26.13;4.57;;;;;;;12.71;67.08;101783.22;6348218;28;20039;-80
2021/04/01 10:32:34;;;;;;;15.55;4.47;;;;;;;12.52;67.31;101774.44;6348289;28;20496;-81
2021/04/01 10:35:37;;;;;;;23.58;4.18;;;;;;;12.54;67.84;101778.72;6347006;28;20054;-81
2021/04/01 10:38:38;;;;;;;24.00;3.90;;;;;;;12.53;68.35;101786.69;6339588;28;20040;-80
2021/04/01 10:41:48;;;;;;;29.15;5.28;;;;;;;12.44;68.55;101775.66;6333258;28;20055;-81
2021/04/01 10:44:58;;;;;;;27.08;4.88;;;;;;;12.48;66.93;101789.53;6323468;28;20090;-80
2021/04/01 10:48:22;;;;;;;23.55;5.40;;;;;;;12.39;68.25;101790.78;6327020;28;20059;-80
2021/04/01 10:51:24;;;;;;;30.50;5.43;;;;;;;12.57;67.70;101790.91;6325957;28;20044;-80
2021/04/01 10:54:35;;;;;;;13.18;4.95;;;;;;;12.72;67.35;101794.63;6323320;28;20492;-76
2021/04/01 10:57:36;;;;;;;21.38;6.30;;;;;;;12.85;68.18;101795.78;6331181;28;20063;-80
2021/04/01 11:00:38;;;;;;;19.58;5.82;;;;;;;13.10;66.96;101801.63;6336260;28;20048;-81
2021/04/01 11:03:45;;;;;;;14.38;4.32;;;;;;;12.90;66.45;101793.81;6321743;28;20482;-81
2021/04/01 11:06:46;;;;;;;18.33;4.38;;;;;;;12.98;66.46;101801.34;6322344;28;20056;-80
2021/04/01 11:09:49;;;;;;;17.05;5.13;;;;;;;12.76;67.30;101812.03;6322054;28;20055;-80
2021/04/01 11:12:53;;;;;;;19.55;4.03;;;;;;;12.93;66.44;101806.84;6321784;28;20523;-80
2021/04/01 11:15:54;;;;;;;12.98;4.95;;;;;;;13.03;68.04;101799.34;6322439;28;20051;-81
2021/04/01 11:18:56;;;;;;;28.35;4.72;;;;;;;13.35;65.96;101792.56;6322323;28;20048;-81
2021/04/01 11:22:02;;;;;;;16.08;4.03;;;;;;;13.70;64.32;101807.56;6321871;28;20052;-82
2021/04/01 11:25:10;;;;;;;11.35;3.30;;;;;;;13.64;61.82;101797.31;6322485;28;20044;-81
2021/04/01 11:28:12;;;;;;;10.55;3.40;;;;;;;13.35;62.15;101804.00;6321856;28;20097;-82
2021/04/01 11:31:21;;;;;;;13.57;3.50;;;;;;;13.49;62.45;101798.06;6321920;28;20052;-82
2021/04/01 11:34:22;;;;;;;14.98;4.25;;;;;;;13.77;62.48;101797.56;6321465;28;20048;-81
2021/04/01 11:37:25;;;;;;;24.08;5.72;;;;;;;13.92;62.04;101817.91;6321880;28;20097;-81
2021/04/01 11:40:27;;;;;;;17.95;5.57;;;;;;;13.61;62.97;101809.81;6321699;28;20059;-81
2021/04/01 11:43:31;;;;;;;19.77;5.38;;;;;;;13.28;62.85;101834.25;6321902;28;20089;-80
2021/04/01 11:46:32;;;;;;;11.43;4.35;;;;;;;13.62;63.53;101825.56;6321928;28;20419;-81
2021/04/01 11:49:34;;;;;;;11.43;5.32;;;;;;;13.56;63.01;101836.44;6321423;28;20048;-81
2021/04/01 11:52:35;;;;;;;14.05;6.65;;;;;;;13.44;62.90;101837.91;6335724;28;20050;-82
2021/04/01 11:55:36;;;;;;;15.10;6.68;;;;;;;13.35;63.07;101845.38;6340465;28;20420;-80
2021/04/01 11:58:38;;;;;;;12.50;7.22;;;;;;;13.62;63.08;101836.13;6332035;28;20055;-81
2021/04/01 12:01:48;;;;;;;15.05;6.93;;;;;;;13.44;62.56;101850.22;6347051;28;20059;-81
2021/04/01 12:04:51;;;;;;;14.65;6.03;;;;;;;12.91;63.45;101851.78;6346922;28;20064;-79
2021/04/01 12:07:53;;;;;;;15.90;5.35;;;;;;;12.68;65.42;101852.81;6346626;28;20543;-85
2021/04/01 12:10:55;;;;;;;26.02;5.97;;;;;;;12.87;63.41;101865.16;6347447;28;20051;-81
2021/04/01 12:14:07;;;;;;;21.98;5.47;;;;;;;12.51;64.78;101857.97;6327109;28;20052;-83
2021/04/01 12:17:08;;;;;;;11.60;4.85;;;;;;;12.39;65.59;101850.56;6321690;28;20451;-82
2021/04/01 12:20:13;;;;;;;9.93;3.85;;;;;;;12.27;66.31;101851.97;6321251;28;20104;-79
2021/04/01 12:23:16;;;;;;;12.18;3.45;;;;;;;12.37;65.79;101858.56;6320905;28;20052;-79
2021/04/01 12:26:17;;;;;;;6.07;2.67;;;;;;;12.36;65.72;101859.50;6321156;28;20052;-79
2021/04/01 12:29:19;;;;;;;9.32;2.00;;;;;;;12.36;64.68;101861.28;6321180;28;20063;-80
2021/04/01 12:32:28;;;;;;;13.55;2.28;;;;;;;12.42;63.09;101864.47;6321129;28;20056;-80
2021/04/01 12:35:29;;;;;;;61.70;6.18;;;;;;;12.68;61.48;101863.34;6324931;28;20048;-79
2021/04/01 12:38:32;;;;;;;13.90;2.90;;;;;;;12.75;62.13;101865.72;6325582;28;20488;-79
2021/04/01 12:41:34;;;;;;;8.85;2.95;;;;;;;12.80;62.36;101858.44;6325860;28;20044;-81
2021/04/01 12:44:38;;;;;;;9.35;3.03;;;;;;;13.32;62.42;101864.03;6325917;28;20056;-79
2021/04/01 12:47:40;;;;;;;7.57;2.75;;;;;;;13.50;60.72;101870.22;6325594;28;20044;-78
2021/04/01 12:50:42;;;;;;;7.60;3.35;;;;;;;13.36;60.06;101876.16;6325163;28;20051;-73
2021/04/01 12:53:44;;;;;;;11.05;3.40;;;;;;;12.76;61.30;101863.00;6325481;28;20052;-79
2021/04/01 12:56:48;;;;;;;17.92;3.75;;;;;;;12.99;61.44;101871.66;6325335;28;20164;-81
2021/04/01 12:59:56;;;;;;;12.32;3.40;;;;;;;12.86;61.70;101880.16;6325622;28;20048;-80
2021/04/01 13:02:57;;;;;;;14.13;2.90;;;;;;;12.83;61.91;101877.63;6324942;28;20401;-79
2021/04/01 13:06:02;;;;;;;7.78;2.65;;;;;;;12.98;59.73;101877.88;6325069;28;20052;-80
2021/04/01 13:09:22;;;;;;;10.27;2.53;;;;;;;12.85;59.96;101875.81;6324456;28;20083;-78
2021/04/01 13:12:23;;;;;;;7.05;2.05;;;;;;;13.17;58.96;101879.63;6324488;28;20461;-82
2021/04/01 13:15:25;;;;;;;9.25;2.33;;;;;;;12.95;59.07;101885.00;6327611;28;20044;-80
2021/04/01 13:18:26;;;;;;;13.57;2.13;;;;;;;12.83;59.02;101901.38;6340576;28;20052;-78
2021/04/01 13:21:34;;;;;;;5.97;1.90;;;;;;;13.12;59.87;101896.56;6324984;28;20048;-80
2021/04/01 13:28:04;;;;;;;13.23;2.08;;;;;;;13.31;58.22;101900.13;6319117;28;20501;-82
2021/04/01 13:31:12;;;;;;;5.22;1.73;;;;;;;13.85;55.02;101908.13;6324446;28;20058;-81
2021/04/01 13:34:18;;;;;;;8.07;1.67;;;;;;;13.83;53.59;101894.16;6324198;28;20412;-82
2021/04/01 13:37:24;;;;;;;8.02;1.30;;;;;;;13.95;52.81;101890.91;6324422;28;20510;-80
2021/04/01 13:40:25;;;;;;;10.95;1.85;;;;;;;14.09;53.65;101895.53;6324293;28;20051;-78
2021/04/01 13:43:29;;;;;;;6.07;1.58;;;;;;;13.96;51.34;101908.47;6325202;28;20079;-83
2021/04/01 13:46:31;;;;;;;21.75;3.42;;;;;;;13.72;52.06;101907.91;6324645;28;20094;-82
2021/04/01 13:49:32;;;;;;;4.20;1.30;;;;;;;13.81;51.68;101914.53;6324115;28;20063;-81
2021/04/01 13:52:36;;;;;;;7.70;2.03;;;;;;;14.00;51.28;101917.13;6323872;28;20055;-80
2021/04/01 13:55:39;;;;;;;5.50;1.73;;;;;;;13.90;51.44;101922.00;6324106;28;20048;-81
2021/04/01 14:12:09;;;;;;;6.25;1.48;;;;;;;12.73;56.36;101915.91;6312550;28;20508;-80
2021/04/01 14:15:11;;;;;;;6.15;1.77;;;;;;;12.66;54.94;101917.94;6323447;28;20412;-81
2021/04/01 14:18:13;;;;;;;10.57;1.98;;;;;;;12.64;55.46;101919.78;6323599;28;20408;-80
2021/04/01 14:21:17;;;;;;;3.88;1.60;;;;;;;12.97;54.01;101927.16;6323641;28;20051;-79
2021/04/01 14:24:22;;;;;;;10.65;1.90;;;;;;;13.11;54.15;101923.91;6323344;28;20500;-80
2021/04/01 14:27:28;;;;;;;7.65;2.03;;;;;;;12.71;55.95;101917.72;6323341;28;20043;-80
2021/04/01 14:30:31;;;;;;;9.65;2.30;;;;;;;12.48;59.30;101920.50;6323025;28;20561;-81
2021/04/01 14:33:34;;;;;;;10.25;2.67;;;;;;;12.88;57.79;101923.13;6322727;28;20051;-80
2021/04/01 14:36:36;;;;;;;8.23;1.48;;;;;;;12.55;55.66;101932.53;6322634;28;20066;-80
2021/04/01 14:39:39;;;;;;;6.60;2.13;;;;;;;12.36;54.78;101924.53;6323012;28;20051;-80
2021/04/01 14:42:45;;;;;;;4.93;1.40;;;;;;;12.63;56.58;101922.50;6322624;28;20048;-80
2021/04/01 14:45:47;;;;;;;8.90;2.20;;;;;;;12.06;58.89;101932.78;6322517;28;20044;-81
2021/04/01 14:48:49;;;;;;;5.50;2.33;;;;;;;12.75;57.75;101926.38;6322851;28;20154;-79
2021/04/01 14:51:50;;;;;;;8.02;2.25;;;;;;;12.74;56.92;101922.88;6322518;28;20048;-79
2021/04/01 14:54:54;;;;;;;7.60;1.90;;;;;;;12.19;58.99;101922.59;6322429;28;20496;-79
2021/04/01 14:57:55;;;;;;;4.00;1.30;;;;;;;12.23;57.68;101928.59;6321978;28;20055;-79
2021/04/01 15:00:57;;;;;;;8.07;1.50;;;;;;;12.04;58.90;101945.16;6322175;28;20458;-79